sensor_id;sensor_type;location;lat;lon;timestamp;pressure;altitude;pressure_sealevel;temperature;humidity
6194;BME280;3130;41.564;23.280;2023-04-03T00:00:24;98150.88;;;10.26;71.43
6194;BME280;3130;41.564;23.280;2023-04-03T00:02:51;98161.50;;;10.33;71.08
6194;BME280;3130;41.564;23.280;2023-04-03T00:05:18;98166.78;;;10.42;70.54
6194;BME280;3130;41.564;23.280;2023-04-03T00:07:45;98163.47;;;10.53;70.97
6194;BME280;3130;41.564;23.280;2023-04-03T00:10:13;98145.81;;;10.48;70.62
6194;BME280;3130;41.564;23.280;2023-04-03T00:12:41;98152.81;;;10.46;70.56
6194;BME280;3130;41.564;23.280;2023-04-03T00:15:08;98115.47;;;10.31;70.45
6194;BME280;3130;41.564;23.280;2023-04-03T00:17:35;98168.13;;;10.59;69.73
6194;BME280;3130;41.564;23.280;2023-04-03T00:20:03;98166.13;;;10.51;69.91
6194;BME280;3130;41.564;23.280;2023-04-03T00:22:30;98096.75;;;10.07;70.36
6194;BME280;3130;41.564;23.280;2023-04-03T00:24:57;98071.22;;;9.94;70.56
6194;BME280;3130;41.564;23.280;2023-04-03T00:27:25;98154.44;;;10.47;70.52
6194;BME280;3130;41.564;23.280;2023-04-03T00:29:53;98039.66;;;9.82;70.96
6194;BME280;3130;41.564;23.280;2023-04-03T00:32:20;98152.94;;;10.45;70.77
6194;BME280;3130;41.564;23.280;2023-04-03T00:34:47;98125.94;;;10.28;70.74
6194;BME280;3130;41.564;23.280;2023-04-03T00:37:14;98132.00;;;10.27;71.29
6194;BME280;3130;41.564;23.280;2023-04-03T00:39:41;98140.53;;;10.39;71.34
6194;BME280;3130;41.564;23.280;2023-04-03T00:42:08;98156.53;;;10.42;72.51
6194;BME280;3130;41.564;23.280;2023-04-03T00:47:40;98127.34;;;10.32;71.62
6194;BME280;3130;41.564;23.280;2023-04-03T00:50:08;98010.66;;;9.58;71.51
6194;BME280;3130;41.564;23.280;2023-04-03T00:52:37;98137.88;;;10.40;71.63
6194;BME280;3130;41.564;23.280;2023-04-03T00:55:08;98042.63;;;9.76;71.03
6194;BME280;3130;41.564;23.280;2023-04-03T00:57:36;98140.81;;;10.47;71.26
6194;BME280;3130;41.564;23.280;2023-04-03T01:00:09;98113.53;;;10.35;70.44
6194;BME280;3130;41.564;23.280;2023-04-03T01:02:37;98132.91;;;10.50;70.70
6194;BME280;3130;41.564;23.280;2023-04-03T01:05:08;98127.34;;;10.32;70.77
6194;BME280;3130;41.564;23.280;2023-04-03T01:07:36;98148.56;;;10.34;71.26
6194;BME280;3130;41.564;23.280;2023-04-03T01:10:05;98146.84;;;10.35;71.19
6194;BME280;3130;41.564;23.280;2023-04-03T01:12:35;98158.72;;;10.36;70.94
6194;BME280;3130;41.564;23.280;2023-04-03T01:15:05;98087.75;;;9.90;71.04
6194;BME280;3130;41.564;23.280;2023-04-03T01:17:34;98150.41;;;10.32;71.86
6194;BME280;3130;41.564;23.280;2023-04-03T01:23:16;98144.03;;;10.38;71.91
6194;BME280;3130;41.564;23.280;2023-04-03T01:25:47;98157.13;;;10.46;71.99
6194;BME280;3130;41.564;23.280;2023-04-03T01:28:16;98019.66;;;9.51;73.42
6194;BME280;3130;41.564;23.280;2023-04-03T01:30:47;98116.50;;;10.05;74.05
6194;BME280;3130;41.564;23.280;2023-04-03T01:33:18;98082.88;;;9.74;74.49
6194;BME280;3130;41.564;23.280;2023-04-03T01:35:45;98146.38;;;10.17;74.91
6194;BME280;3130;41.564;23.280;2023-04-03T01:38:12;98142.69;;;10.21;74.81
6194;BME280;3130;41.564;23.280;2023-04-03T01:40:40;98149.19;;;10.02;76.29
6194;BME280;3130;41.564;23.280;2023-04-03T01:43:08;98137.25;;;10.13;76.11
6194;BME280;3130;41.564;23.280;2023-04-03T01:45:35;98098.41;;;9.84;76.40
6194;BME280;3130;41.564;23.280;2023-04-03T01:48:02;98124.63;;;9.87;76.44
6194;BME280;3130;41.564;23.280;2023-04-03T01:50:31;98059.91;;;9.49;76.20
6194;BME280;3130;41.564;23.280;2023-04-03T01:52:58;98126.06;;;9.79;76.44
6194;BME280;3130;41.564;23.280;2023-04-03T01:55:25;98117.50;;;9.67;76.97
6194;BME280;3130;41.564;23.280;2023-04-03T01:57:52;98112.19;;;9.58;77.64
6194;BME280;3130;41.564;23.280;2023-04-03T02:00:19;98113.63;;;9.49;77.60
6194;BME280;3130;41.564;23.280;2023-04-03T02:02:46;98068.88;;;9.06;78.65
6194;BME280;3130;41.564;23.280;2023-04-03T02:05:14;98113.66;;;9.12;78.55
6194;BME280;3130;41.564;23.280;2023-04-03T02:07:42;98027.16;;;8.56;78.61
6194;BME280;3130;41.564;23.280;2023-04-03T02:10:09;98105.41;;;9.21;78.40
6194;BME280;3130;41.564;23.280;2023-04-03T02:12:36;98105.09;;;9.25;78.24
6194;BME280;3130;41.564;23.280;2023-04-03T02:15:04;98069.28;;;9.13;78.16
6194;BME280;3130;41.564;23.280;2023-04-03T02:17:32;98101.69;;;9.25;78.28
6194;BME280;3130;41.564;23.280;2023-04-03T02:19:59;98098.72;;;9.18;78.87
6194;BME280;3130;41.564;23.280;2023-04-03T02:22:26;98063.69;;;8.96;79.06
6194;BME280;3130;41.564;23.280;2023-04-03T02:24:54;98097.00;;;9.06;79.37
6194;BME280;3130;41.564;23.280;2023-04-03T02:27:22;98082.06;;;9.00;79.80
6194;BME280;3130;41.564;23.280;2023-04-03T02:29:49;98082.19;;;8.99;79.69
6194;BME280;3130;41.564;23.280;2023-04-03T02:32:16;98079.50;;;8.88;80.44
6194;BME280;3130;41.564;23.280;2023-04-03T02:34:43;98085.03;;;8.95;80.62
6194;BME280;3130;41.564;23.280;2023-04-03T02:37:10;98076.94;;;8.88;80.60
6194;BME280;3130;41.564;23.280;2023-04-03T02:39:37;98002.94;;;8.49;80.55
6194;BME280;3130;41.564;23.280;2023-04-03T02:42:05;98037.47;;;8.55;80.74
6194;BME280;3130;41.564;23.280;2023-04-03T02:44:32;98065.28;;;8.72;80.75
6194;BME280;3130;41.564;23.280;2023-04-03T02:46:59;97954.81;;;8.04;80.76
6194;BME280;3130;41.564;23.280;2023-04-03T02:49:26;98070.94;;;8.77;80.68
6194;BME280;3130;41.564;23.280;2023-04-03T02:51:53;98021.53;;;8.51;80.33
6194;BME280;3130;41.564;23.280;2023-04-03T02:54:20;98059.16;;;8.74;80.11
6194;BME280;3130;41.564;23.280;2023-04-03T02:56:48;98063.88;;;8.80;80.47
6194;BME280;3130;41.564;23.280;2023-04-03T02:59:17;98066.31;;;8.82;80.29
6194;BME280;3130;41.564;23.280;2023-04-03T03:01:44;98034.00;;;8.56;80.30
6194;BME280;3130;41.564;23.280;2023-04-03T03:04:11;98056.69;;;8.60;80.78
6194;BME280;3130;41.564;23.280;2023-04-03T03:06:38;98064.75;;;8.67;80.62
6194;BME280;3130;41.564;23.280;2023-04-03T03:09:05;98066.00;;;8.74;80.58
6194;BME280;3130;41.564;23.280;2023-04-03T03:11:32;98069.16;;;8.77;80.31
6194;BME280;3130;41.564;23.280;2023-04-03T03:13:59;98073.69;;;8.74;80.03
6194;BME280;3130;41.564;23.280;2023-04-03T03:16:28;97939.28;;;7.95;80.17
6194;BME280;3130;41.564;23.280;2023-04-03T03:18:55;98063.94;;;8.79;79.87
6194;BME280;3130;41.564;23.280;2023-04-03T03:21:22;98022.47;;;8.50;80.14
6194;BME280;3130;41.564;23.280;2023-04-03T03:23:49;98067.44;;;8.65;80.89
6194;BME280;3130;41.564;23.280;2023-04-03T03:26:16;98056.69;;;8.60;80.92
6194;BME280;3130;41.564;23.280;2023-04-03T03:28:43;98065.78;;;8.64;80.41
6194;BME280;3130;41.564;23.280;2023-04-03T03:31:10;98077.13;;;8.60;80.81
6194;BME280;3130;41.564;23.280;2023-04-03T03:33:39;97997.00;;;7.97;80.42
6194;BME280;3130;41.564;23.280;2023-04-03T03:36:06;98088.66;;;8.53;80.18
6194;BME280;3130;41.564;23.280;2023-04-03T03:38:33;98096.25;;;8.67;80.00
6194;BME280;3130;41.564;23.280;2023-04-03T03:41:00;98096.56;;;8.75;79.76
6194;BME280;3130;41.564;23.280;2023-04-03T03:43:27;98098.72;;;8.81;79.83
6194;BME280;3130;41.564;23.280;2023-04-03T03:45:55;98098.22;;;8.89;79.77
6194;BME280;3130;41.564;23.280;2023-04-03T03:48:22;98109.25;;;8.89;80.35
6194;BME280;3130;41.564;23.280;2023-04-03T03:50:50;98084.41;;;8.66;80.71
6194;BME280;3130;41.564;23.280;2023-04-03T03:53:18;98017.53;;;8.35;80.74
6194;BME280;3130;41.564;23.280;2023-04-03T03:55:45;98089.41;;;8.80;80.69
6194;BME280;3130;41.564;23.280;2023-04-03T03:58:12;98032.03;;;8.34;80.57
6194;BME280;3130;41.564;23.280;2023-04-03T04:00:39;98091.66;;;8.60;81.14
6194;BME280;3130;41.564;23.280;2023-04-03T04:03:06;98074.75;;;8.32;81.36
6194;BME280;3130;41.564;23.280;2023-04-03T04:05:33;98034.16;;;8.01;81.69
6194;BME280;3130;41.564;23.280;2023-04-03T04:08:01;98081.78;;;8.41;81.63
6194;BME280;3130;41.564;23.280;2023-04-03T04:10:28;98037.13;;;8.22;81.60
6194;BME280;3130;41.564;23.280;2023-04-03T04:12:55;98075.03;;;8.40;81.72
6194;BME280;3130;41.564;23.280;2023-04-03T04:15:22;98082.09;;;8.37;82.20
6194;BME280;3130;41.564;23.280;2023-04-03T04:17:51;98085.94;;;8.30;82.03
6194;BME280;3130;41.564;23.280;2023-04-03T04:20:18;98070.31;;;8.22;81.93
6194;BME280;3130;41.564;23.280;2023-04-03T04:22:46;98097.81;;;8.31;82.29
6194;BME280;3130;41.564;23.280;2023-04-03T04:25:14;98110.50;;;8.32;82.40
6194;BME280;3130;41.564;23.280;2023-04-03T04:27:41;98103.97;;;8.41;82.22
6194;BME280;3130;41.564;23.280;2023-04-03T04:30:10;98075.84;;;8.28;82.24
6194;BME280;3130;41.564;23.280;2023-04-03T04:32:37;98098.66;;;8.44;82.55
6194;BME280;3130;41.564;23.280;2023-04-03T04:35:05;98093.34;;;8.47;82.30
6194;BME280;3130;41.564;23.280;2023-04-03T04:37:32;98090.66;;;8.36;82.68
6194;BME280;3130;41.564;23.280;2023-04-03T04:39:59;98072.13;;;8.20;82.83
6194;BME280;3130;41.564;23.280;2023-04-03T04:42:27;98100.03;;;8.23;83.39
6194;BME280;3130;41.564;23.280;2023-04-03T04:44:55;98101.06;;;8.33;83.39
6194;BME280;3130;41.564;23.280;2023-04-03T04:47:22;98100.09;;;8.48;82.66
6194;BME280;3130;41.564;23.280;2023-04-03T04:49:49;98086.41;;;8.49;81.91
6194;BME280;3130;41.564;23.280;2023-04-03T04:52:16;98095.53;;;8.65;81.66
6194;BME280;3130;41.564;23.280;2023-04-03T04:54:43;98091.75;;;8.58;81.69
6194;BME280;3130;41.564;23.280;2023-04-03T04:57:10;98097.97;;;8.54;81.73
6194;BME280;3130;41.564;23.280;2023-04-03T04:59:38;98095.72;;;8.50;82.53
6194;BME280;3130;41.564;23.280;2023-04-03T05:02:05;98095.94;;;8.59;82.09
6194;BME280;3130;41.564;23.280;2023-04-03T05:04:32;98105.53;;;8.56;82.56
6194;BME280;3130;41.564;23.280;2023-04-03T05:06:59;98100.47;;;8.68;82.46
6194;BME280;3130;41.564;23.280;2023-04-03T05:09:27;98115.28;;;8.88;81.71
6194;BME280;3130;41.564;23.280;2023-04-03T05:11:54;98120.72;;;8.96;81.21
6194;BME280;3130;41.564;23.280;2023-04-03T05:14:21;98107.72;;;8.87;81.25
6194;BME280;3130;41.564;23.280;2023-04-03T05:16:50;98081.22;;;8.63;81.80
6194;BME280;3130;41.564;23.280;2023-04-03T05:19:19;98110.50;;;8.96;81.54
6194;BME280;3130;41.564;23.280;2023-04-03T05:21:46;98091.56;;;9.11;80.88
6194;BME280;3130;41.564;23.280;2023-04-03T05:24:14;98066.72;;;9.13;80.94
6194;BME280;3130;41.564;23.280;2023-04-03T05:26:41;98071.91;;;9.24;80.17
6194;BME280;3130;41.564;23.280;2023-04-03T05:29:09;98091.97;;;9.42;79.70
6194;BME280;3130;41.564;23.280;2023-04-03T05:31:36;98089.09;;;9.47;79.32
6194;BME280;3130;41.564;23.280;2023-04-03T05:34:04;98076.59;;;9.55;78.67
6194;BME280;3130;41.564;23.280;2023-04-03T05:36:32;98073.00;;;9.57;78.62
6194;BME280;3130;41.564;23.280;2023-04-03T05:38:59;98065.53;;;9.54;78.50
6194;BME280;3130;41.564;23.280;2023-04-03T05:41:26;98086.19;;;9.64;78.85
6194;BME280;3130;41.564;23.280;2023-04-03T05:43:53;98083.09;;;9.71;78.44
6194;BME280;3130;41.564;23.280;2023-04-03T05:46:20;98078.34;;;9.78;77.96
6194;BME280;3130;41.564;23.280;2023-04-03T05:48:47;98082.16;;;9.72;78.16
6194;BME280;3130;41.564;23.280;2023-04-03T05:51:18;98102.59;;;9.97;77.53
6194;BME280;3130;41.564;23.280;2023-04-03T05:53:46;98109.28;;;10.10;76.48
6194;BME280;3130;41.564;23.280;2023-04-03T05:56:14;98111.94;;;10.21;75.38
6194;BME280;3130;41.564;23.280;2023-04-03T05:58:41;98113.03;;;10.30;75.83
6194;BME280;3130;41.564;23.280;2023-04-03T06:01:08;98121.81;;;10.38;75.51
6194;BME280;3130;41.564;23.280;2023-04-03T06:03:35;98123.25;;;10.53;75.35
6194;BME280;3130;41.564;23.280;2023-04-03T06:06:04;98117.22;;;10.65;74.59
6194;BME280;3130;41.564;23.280;2023-04-03T06:08:32;98123.72;;;10.82;73.86
6194;BME280;3130;41.564;23.280;2023-04-03T06:11:00;98124.56;;;11.04;72.87
6194;BME280;3130;41.564;23.280;2023-04-03T06:13:28;98132.19;;;11.16;71.84
6194;BME280;3130;41.564;23.280;2023-04-03T06:15:55;98122.84;;;11.26;71.52
6194;BME280;3130;41.564;23.280;2023-04-03T06:18:22;98125.75;;;11.22;73.18
6194;BME280;3130;41.564;23.280;2023-04-03T06:20:50;98131.47;;;11.25;73.42
6194;BME280;3130;41.564;23.280;2023-04-03T06:23:17;98106.13;;;10.99;73.96
6194;BME280;3130;41.564;23.280;2023-04-03T06:25:45;98095.72;;;10.90;74.10
6194;BME280;3130;41.564;23.280;2023-04-03T06:28:13;98083.75;;;10.90;71.21
6194;BME280;3130;41.564;23.280;2023-04-03T06:30:40;98106.88;;;11.12;72.27
6194;BME280;3130;41.564;23.280;2023-04-03T06:33:07;98102.31;;;11.26;71.06
6194;BME280;3130;41.564;23.280;2023-04-03T06:35:34;98084.03;;;11.31;69.40
6194;BME280;3130;41.564;23.280;2023-04-03T06:38:02;98075.38;;;11.43;69.24
6194;BME280;3130;41.564;23.280;2023-04-03T06:40:35;98102.00;;;11.86;66.45
6194;BME280;3130;41.564;23.280;2023-04-03T06:43:03;98090.63;;;11.99;66.85
6194;BME280;3130;41.564;23.280;2023-04-03T06:45:31;98100.72;;;12.22;65.03
6194;BME280;3130;41.564;23.280;2023-04-03T06:47:58;98095.31;;;12.36;64.53
6194;BME280;3130;41.564;23.280;2023-04-03T06:50:25;98098.28;;;12.52;63.42
6194;BME280;3130;41.564;23.280;2023-04-03T06:52:52;98080.97;;;12.54;61.11
6194;BME280;3130;41.564;23.280;2023-04-03T06:55:19;98097.13;;;12.77;60.86
6194;BME280;3130;41.564;23.280;2023-04-03T06:57:47;98102.94;;;12.79;60.15
6194;BME280;3130;41.564;23.280;2023-04-03T07:00:16;98092.72;;;12.88;61.01
6194;BME280;3130;41.564;23.280;2023-04-03T07:02:44;98093.88;;;12.95;60.95
6194;BME280;3130;41.564;23.280;2023-04-03T07:05:11;98036.94;;;12.68;60.35
6194;BME280;3130;41.564;23.280;2023-04-03T07:07:38;98078.31;;;12.97;59.80
6194;BME280;3130;41.564;23.280;2023-04-03T07:10:07;98064.34;;;12.58;61.03
6194;BME280;3130;41.564;23.280;2023-04-03T07:12:35;98070.50;;;12.67;61.29
6194;BME280;3130;41.564;23.280;2023-04-03T07:15:03;98069.44;;;12.69;61.54
6194;BME280;3130;41.564;23.280;2023-04-03T07:17:32;98066.28;;;12.66;61.57
6194;BME280;3130;41.564;23.280;2023-04-03T07:19:59;98062.91;;;12.86;61.58
6194;BME280;3130;41.564;23.280;2023-04-03T07:22:26;98062.50;;;13.01;60.83
6194;BME280;3130;41.564;23.280;2023-04-03T07:24:53;98056.56;;;13.10;61.12
6194;BME280;3130;41.564;23.280;2023-04-03T07:27:20;98011.81;;;13.02;60.55
6194;BME280;3130;41.564;23.280;2023-04-03T07:29:48;98044.06;;;13.35;60.59
6194;BME280;3130;41.564;23.280;2023-04-03T07:32:15;98045.63;;;13.47;60.13
6194;BME280;3130;41.564;23.280;2023-04-03T07:34:44;98042.84;;;13.30;60.88
6194;BME280;3130;41.564;23.280;2023-04-03T07:37:11;98030.81;;;13.40;61.40
6194;BME280;3130;41.564;23.280;2023-04-03T07:39:38;98029.50;;;13.55;61.12
6194;BME280;3130;41.564;23.280;2023-04-03T07:42:05;98016.75;;;13.44;60.48
6194;BME280;3130;41.564;23.280;2023-04-03T07:44:32;98028.13;;;13.51;60.21
6194;BME280;3130;41.564;23.280;2023-04-03T07:47:00;98031.25;;;13.54;59.23
6194;BME280;3130;41.564;23.280;2023-04-03T07:49:28;98005.16;;;13.29;59.95
6194;BME280;3130;41.564;23.280;2023-04-03T07:51:56;98015.78;;;13.45;59.96
6194;BME280;3130;41.564;23.280;2023-04-03T07:54:24;98013.84;;;13.37;59.58
6194;BME280;3130;41.564;23.280;2023-04-03T07:56:51;98031.53;;;13.51;59.74
6194;BME280;3130;41.564;23.280;2023-04-03T07:59:18;98033.06;;;13.63;59.55
6194;BME280;3130;41.564;23.280;2023-04-03T08:01:45;98031.25;;;13.54;59.93
6194;BME280;3130;41.564;23.280;2023-04-03T08:04:12;98027.06;;;13.53;60.46
6194;BME280;3130;41.564;23.280;2023-04-03T08:06:39;98029.41;;;13.66;60.32
6194;BME280;3130;41.564;23.280;2023-04-03T08:09:07;98017.47;;;13.65;60.03
6194;BME280;3130;41.564;23.280;2023-04-03T08:11:34;97997.78;;;13.54;60.58
6194;BME280;3130;41.564;23.280;2023-04-03T08:14:02;98014.50;;;13.69;60.77
6194;BME280;3130;41.564;23.280;2023-04-03T08:16:29;98018.44;;;13.83;60.94
6194;BME280;3130;41.564;23.280;2023-04-03T08:18:56;98001.78;;;13.87;59.66
6194;BME280;3130;41.564;23.280;2023-04-03T08:21:23;98000.00;;;13.68;59.59
6194;BME280;3130;41.564;23.280;2023-04-03T08:23:50;97995.66;;;13.69;59.50
6194;BME280;3130;41.564;23.280;2023-04-03T08:26:20;97947.19;;;13.25;59.25
6194;BME280;3130;41.564;23.280;2023-04-03T08:28:48;98001.22;;;13.74;59.76
6194;BME280;3130;41.564;23.280;2023-04-03T08:31:18;98003.25;;;13.61;60.95
6194;BME280;3130;41.564;23.280;2023-04-03T08:33:45;98002.38;;;13.51;61.50
6194;BME280;3130;41.564;23.280;2023-04-03T08:36:23;98003.69;;;13.36;60.78
6194;BME280;3130;41.564;23.280;2023-04-03T08:38:51;97984.69;;;13.27;61.89
6194;BME280;3130;41.564;23.280;2023-04-03T08:41:27;98004.97;;;13.51;61.92
6194;BME280;3130;41.564;23.280;2023-04-03T08:44:00;98017.84;;;13.51;63.08
6194;BME280;3130;41.564;23.280;2023-04-03T08:46:39;97996.53;;;13.39;63.51
6194;BME280;3130;41.564;23.280;2023-04-03T08:49:11;98007.41;;;13.62;64.48
6194;BME280;3130;41.564;23.280;2023-04-03T08:51:46;98003.78;;;13.74;65.39
6194;BME280;3130;41.564;23.280;2023-04-03T08:54:21;97997.44;;;13.87;66.08
6194;BME280;3130;41.564;23.280;2023-04-03T08:56:52;98004.63;;;14.03;66.00
6194;BME280;3130;41.564;23.280;2023-04-03T08:59:26;98006.16;;;14.14;66.13
6194;BME280;3130;41.564;23.280;2023-04-03T09:01:56;98004.94;;;14.18;67.92
6194;BME280;3130;41.564;23.280;2023-04-03T09:04:26;97990.28;;;14.19;67.48
6194;BME280;3130;41.564;23.280;2023-04-03T09:06:57;97995.69;;;14.07;66.68
6194;BME280;3130;41.564;23.280;2023-04-03T09:09:31;98003.78;;;13.64;69.02
6194;BME280;3130;41.564;23.280;2023-04-03T09:12:10;98005.44;;;13.94;69.06
6194;BME280;3130;41.564;23.280;2023-04-03T09:14:43;97982.53;;;13.91;68.93
6194;BME280;3130;41.564;23.280;2023-04-03T09:17:15;98002.63;;;14.25;68.88
6194;BME280;3130;41.564;23.280;2023-04-03T09:19:53;98007.25;;;14.40;68.99
6194;BME280;3130;41.564;23.280;2023-04-03T09:22:24;98002.06;;;14.40;67.00
6194;BME280;3130;41.564;23.280;2023-04-03T09:24:57;98007.06;;;14.51;68.91
6194;BME280;3130;41.564;23.280;2023-04-03T09:27:27;98019.03;;;14.52;68.23
6194;BME280;3130;41.564;23.280;2023-04-03T09:29:56;98023.50;;;14.50;69.08
6194;BME280;3130;41.564;23.280;2023-04-03T09:32:27;98008.44;;;14.55;68.73
6194;BME280;3130;41.564;23.280;2023-04-03T09:34:56;98003.69;;;14.60;67.42
6194;BME280;3130;41.564;23.280;2023-04-03T09:37:40;97993.09;;;14.54;66.61
6194;BME280;3130;41.564;23.280;2023-04-03T09:40:29;97978.16;;;14.57;67.50
6194;BME280;3130;41.564;23.280;2023-04-03T09:43:00;98019.25;;;14.78;71.84
6194;BME280;3130;41.564;23.280;2023-04-03T09:45:30;98012.47;;;14.67;73.09
6194;BME280;3130;41.564;23.280;2023-04-03T09:48:06;98028.56;;;14.33;75.36
6194;BME280;3130;41.564;23.280;2023-04-03T09:50:34;98037.38;;;14.21;77.57
6194;BME280;3130;41.564;23.280;2023-04-03T09:53:05;98027.56;;;14.06;78.71
6194;BME280;3130;41.564;23.280;2023-04-03T09:55:41;98047.09;;;14.08;79.76
6194;BME280;3130;41.564;23.280;2023-04-03T09:58:24;98046.97;;;14.09;80.36
6194;BME280;3130;41.564;23.280;2023-04-03T10:00:54;98026.59;;;13.97;80.01
6194;BME280;3130;41.564;23.280;2023-04-03T10:03:25;98027.56;;;13.96;80.92
6194;BME280;3130;41.564;23.280;2023-04-03T10:05:53;98021.28;;;13.89;80.94
6194;BME280;3130;41.564;23.280;2023-04-03T10:08:23;98011.56;;;13.93;80.90
6194;BME280;3130;41.564;23.280;2023-04-03T10:11:07;98004.47;;;13.76;81.57
6194;BME280;3130;41.564;23.280;2023-04-03T10:13:49;97998.09;;;13.80;81.47
6194;BME280;3130;41.564;23.280;2023-04-03T10:16:19;97990.78;;;13.85;81.42
6194;BME280;3130;41.564;23.280;2023-04-03T10:18:56;97993.53;;;14.02;81.74
6194;BME280;3130;41.564;23.280;2023-04-03T10:21:34;97949.44;;;13.86;81.68
6194;BME280;3130;41.564;23.280;2023-04-03T10:24:09;97990.56;;;14.16;81.04
6194;BME280;3130;41.564;23.280;2023-04-03T10:26:44;97989.72;;;14.15;82.63
6194;BME280;3130;41.564;23.280;2023-04-03T10:29:26;97969.22;;;14.05;82.38
6194;BME280;3130;41.564;23.280;2023-04-03T10:32:01;97965.44;;;14.08;83.17
6194;BME280;3130;41.564;23.280;2023-04-03T10:34:32;97971.03;;;14.13;83.83
6194;BME280;3130;41.564;23.280;2023-04-03T10:37:06;97958.13;;;14.13;82.88
6194;BME280;3130;41.564;23.280;2023-04-03T10:39:41;97961.91;;;14.28;81.90
6194;BME280;3130;41.564;23.280;2023-04-03T10:42:14;97954.47;;;14.25;82.43
6194;BME280;3130;41.564;23.280;2023-04-03T10:44:56;97951.84;;;14.07;82.74
6194;BME280;3130;41.564;23.280;2023-04-03T10:47:32;97944.13;;;13.97;82.96
6194;BME280;3130;41.564;23.280;2023-04-03T10:50:12;97946.56;;;13.99;83.41
6194;BME280;3130;41.564;23.280;2023-04-03T10:52:52;97950.66;;;14.01;83.63
6194;BME280;3130;41.564;23.280;2023-04-03T10:55:31;97936.66;;;13.85;82.71
6194;BME280;3130;41.564;23.280;2023-04-03T10:58:01;97937.75;;;13.82;83.74
6194;BME280;3130;41.564;23.280;2023-04-03T11:00:36;97911.16;;;13.53;84.72
6194;BME280;3130;41.564;23.280;2023-04-03T11:03:07;97925.13;;;13.60;86.78
6194;BME280;3130;41.564;23.280;2023-04-03T11:05:40;97910.63;;;13.59;86.05
6194;BME280;3130;41.564;23.280;2023-04-03T11:08:17;97911.16;;;13.63;86.41
6194;BME280;3130;41.564;23.280;2023-04-03T11:10:49;97884.75;;;13.61;86.66
6194;BME280;3130;41.564;23.280;2023-04-03T11:13:21;97841.31;;;13.18;88.19
6194;BME280;3130;41.564;23.280;2023-04-03T11:15:53;97846.44;;;13.09;88.83
6194;BME280;3130;41.564;23.280;2023-04-03T11:18:24;97844.84;;;12.99;88.53
6194;BME280;3130;41.564;23.280;2023-04-03T11:21:00;97814.84;;;12.79;88.55
6194;BME280;3130;41.564;23.280;2023-04-03T11:23:32;97843.59;;;12.93;89.35
6194;BME280;3130;41.564;23.280;2023-04-03T11:26:09;97847.09;;;12.92;89.90
6194;BME280;3130;41.564;23.280;2023-04-03T11:28:37;97837.91;;;12.99;89.04
6194;BME280;3130;41.564;23.280;2023-04-03T11:31:19;97824.31;;;12.88;87.15
6194;BME280;3130;41.564;23.280;2023-04-03T11:33:55;97831.94;;;12.59;87.36
6194;BME280;3130;41.564;23.280;2023-04-03T11:36:27;97824.09;;;12.51;88.50
6194;BME280;3130;41.564;23.280;2023-04-03T11:38:58;97807.19;;;12.58;89.31
6194;BME280;3130;41.564;23.280;2023-04-03T11:41:29;97790.38;;;12.45;89.05
6194;BME280;3130;41.564;23.280;2023-04-03T11:43:58;97789.72;;;12.52;89.66
6194;BME280;3130;41.564;23.280;2023-04-03T11:46:55;97786.75;;;12.57;89.50
6194;BME280;3130;41.564;23.280;2023-04-03T11:49:51;97789.19;;;12.19;91.39
6194;BME280;3130;41.564;23.280;2023-04-03T11:55:55;97762.41;;;12.21;91.47
6194;BME280;3130;41.564;23.280;2023-04-03T11:58:24;97758.91;;;12.32;91.95
6194;BME280;3130;41.564;23.280;2023-04-03T12:00:56;97762.91;;;12.45;92.53
6194;BME280;3130;41.564;23.280;2023-04-03T12:03:56;97760.78;;;12.60;92.24
6194;BME280;3130;41.564;23.280;2023-04-03T12:10:15;97755.97;;;12.36;93.48
6194;BME280;3130;41.564;23.280;2023-04-03T12:12:55;97745.38;;;12.30;94.72
6194;BME280;3130;41.564;23.280;2023-04-03T12:15:51;97739.91;;;12.14;96.32
6194;BME280;3130;41.564;23.280;2023-04-03T12:18:57;97722.63;;;12.16;97.80
6194;BME280;3130;41.564;23.280;2023-04-03T12:24:27;97716.75;;;12.04;98.55
6194;BME280;3130;41.564;23.280;2023-04-03T12:27:15;97702.66;;;11.90;97.91
6194;BME280;3130;41.564;23.280;2023-04-03T12:29:47;97728.84;;;12.13;97.93
6194;BME280;3130;41.564;23.280;2023-04-03T12:32:26;97726.41;;;12.21;97.82
6194;BME280;3130;41.564;23.280;2023-04-03T12:35:08;97727.09;;;12.23;97.01
6194;BME280;3130;41.564;23.280;2023-04-03T12:37:44;97715.78;;;12.26;97.27
6194;BME280;3130;41.564;23.280;2023-04-03T12:40:21;97719.69;;;12.20;96.73
6194;BME280;3130;41.564;23.280;2023-04-03T12:43:24;97692.38;;;12.29;97.48
6194;BME280;3130;41.564;23.280;2023-04-03T12:45:59;97687.66;;;12.53;98.31
6194;BME280;3130;41.564;23.280;2023-04-03T12:48:31;97681.81;;;12.41;97.54
6194;BME280;3130;41.564;23.280;2023-04-03T12:51:02;97672.41;;;11.93;98.99
6194;BME280;3130;41.564;23.280;2023-04-03T12:53:32;97684.88;;;12.07;99.51
6194;BME280;3130;41.564;23.280;2023-04-03T12:56:24;97688.13;;;12.09;99.46
6194;BME280;3130;41.564;23.280;2023-04-03T12:58:53;97688.44;;;12.25;98.82
6194;BME280;3130;41.564;23.280;2023-04-03T13:01:22;97688.47;;;12.34;97.83
6194;BME280;3130;41.564;23.280;2023-04-03T13:03:52;97679.81;;;12.45;96.90
6194;BME280;3130;41.564;23.280;2023-04-03T13:06:24;97678.88;;;12.46;96.55
6194;BME280;3130;41.564;23.280;2023-04-03T13:08:52;97676.00;;;12.39;95.80
6194;BME280;3130;41.564;23.280;2023-04-03T13:11:20;97674.53;;;12.46;97.33
6194;BME280;3130;41.564;23.280;2023-04-03T13:13:56;97664.25;;;12.37;97.62
6194;BME280;3130;41.564;23.280;2023-04-03T13:16:23;97643.53;;;12.29;95.46
6194;BME280;3130;41.564;23.280;2023-04-03T13:18:51;97625.22;;;12.03;94.16
6194;BME280;3130;41.564;23.280;2023-04-03T13:21:21;97623.88;;;12.00;98.17
6194;BME280;3130;41.564;23.280;2023-04-03T13:23:51;97634.97;;;12.09;100.00
6194;BME280;3130;41.564;23.280;2023-04-03T13:26:20;97578.88;;;11.56;100.00
6194;BME280;3130;41.564;23.280;2023-04-03T13:28:49;97641.16;;;11.98;100.00
6194;BME280;3130;41.564;23.280;2023-04-03T13:31:31;97663.41;;;12.17;100.00
6194;BME280;3130;41.564;23.280;2023-04-03T13:34:02;97655.56;;;12.19;100.00
6194;BME280;3130;41.564;23.280;2023-04-03T13:36:35;97650.53;;;12.08;100.00
6194;BME280;3130;41.564;23.280;2023-04-03T13:39:21;97576.38;;;11.75;100.00
6194;BME280;3130;41.564;23.280;2023-04-03T13:41:50;97608.28;;;11.92;100.00
6194;BME280;3130;41.564;23.280;2023-04-03T13:44:27;97583.97;;;11.96;100.00
6194;BME280;3130;41.564;23.280;2023-04-03T13:46:56;97581.94;;;11.50;100.00